sensor_id;sensor_type;location;lat;lon;timestamp;temperature;humidity
2497;DHT22;1259;48.306;14.374;2022-09-12T00:01:59;14.20;99.90
2497;DHT22;1259;48.306;14.374;2022-09-12T00:04:26;14.20;99.90
2497;DHT22;1259;48.306;14.374;2022-09-12T00:06:54;14.20;99.90
2497;DHT22;1259;48.306;14.374;2022-09-12T00:09:21;14.20;99.90
2497;DHT22;1259;48.306;14.374;2022-09-12T00:11:48;14.20;99.90
2497;DHT22;1259;48.306;14.374;2022-09-12T00:14:16;14.20;99.90
2497;DHT22;1259;48.306;14.374;2022-09-12T00:16:44;14.20;99.90
2497;DHT22;1259;48.306;14.374;2022-09-12T00:19:11;14.20;99.90
2497;DHT22;1259;48.306;14.374;2022-09-12T00:21:39;14.20;99.90
2497;DHT22;1259;48.306;14.374;2022-09-12T00:24:09;14.20;99.90
2497;DHT22;1259;48.306;14.374;2022-09-12T00:26:36;14.20;99.90
2497;DHT22;1259;48.306;14.374;2022-09-12T00:29:03;14.20;99.90
2497;DHT22;1259;48.306;14.374;2022-09-12T00:31:30;14.20;99.90
2497;DHT22;1259;48.306;14.374;2022-09-12T00:33:58;14.30;99.90
2497;DHT22;1259;48.306;14.374;2022-09-12T00:36:27;14.20;99.90
2497;DHT22;1259;48.306;14.374;2022-09-12T00:38:54;14.30;99.90
2497;DHT22;1259;48.306;14.374;2022-09-12T00:41:25;14.30;99.90
2497;DHT22;1259;48.306;14.374;2022-09-12T00:43:54;14.30;99.90
2497;DHT22;1259;48.306;14.374;2022-09-12T00:46:29;14.30;99.90
2497;DHT22;1259;48.306;14.374;2022-09-12T00:49:00;14.30;99.90
2497;DHT22;1259;48.306;14.374;2022-09-12T00:51:31;14.30;99.90
2497;DHT22;1259;48.306;14.374;2022-09-12T00:54:03;14.40;99.90
2497;DHT22;1259;48.306;14.374;2022-09-12T00:56:33;14.40;99.90
2497;DHT22;1259;48.306;14.374;2022-09-12T00:59:04;14.30;99.90
2497;DHT22;1259;48.306;14.374;2022-09-12T01:01:33;14.30;99.90
2497;DHT22;1259;48.306;14.374;2022-09-12T01:04:01;14.30;99.90
2497;DHT22;1259;48.306;14.374;2022-09-12T01:06:31;14.20;99.90
2497;DHT22;1259;48.306;14.374;2022-09-12T01:09:01;14.10;99.90
2497;DHT22;1259;48.306;14.374;2022-09-12T01:11:29;14.20;99.90
2497;DHT22;1259;48.306;14.374;2022-09-12T01:13:58;14.30;99.90
2497;DHT22;1259;48.306;14.374;2022-09-12T01:16:25;14.40;99.90
2497;DHT22;1259;48.306;14.374;2022-09-12T01:18:59;14.40;99.90
2497;DHT22;1259;48.306;14.374;2022-09-12T01:21:35;14.30;99.90
2497;DHT22;1259;48.306;14.374;2022-09-12T01:24:41;14.30;99.90
2497;DHT22;1259;48.306;14.374;2022-09-12T01:27:43;14.30;99.90
2497;DHT22;1259;48.306;14.374;2022-09-12T01:30:30;14.30;99.90
2497;DHT22;1259;48.306;14.374;2022-09-12T01:33:31;14.30;99.90
2497;DHT22;1259;48.306;14.374;2022-09-12T01:38:57;14.30;99.90
2497;DHT22;1259;48.306;14.374;2022-09-12T01:41:29;14.20;99.90
2497;DHT22;1259;48.306;14.374;2022-09-12T01:44:02;14.20;99.90
2497;DHT22;1259;48.306;14.374;2022-09-12T01:46:39;14.20;99.90
2497;DHT22;1259;48.306;14.374;2022-09-12T01:49:13;14.20;99.90
2497;DHT22;1259;48.306;14.374;2022-09-12T01:51:50;14.10;99.90
2497;DHT22;1259;48.306;14.374;2022-09-12T01:54:24;14.10;99.90
2497;DHT22;1259;48.306;14.374;2022-09-12T01:56:54;14.10;99.90
2497;DHT22;1259;48.306;14.374;2022-09-12T01:59:28;14.10;99.90
2497;DHT22;1259;48.306;14.374;2022-09-12T02:02:00;14.10;99.90
2497;DHT22;1259;48.306;14.374;2022-09-12T02:04:34;14.10;99.90
2497;DHT22;1259;48.306;14.374;2022-09-12T02:07:07;14.10;99.90
2497;DHT22;1259;48.306;14.374;2022-09-12T02:09:42;14.10;99.90
2497;DHT22;1259;48.306;14.374;2022-09-12T02:12:11;14.00;99.90
2497;DHT22;1259;48.306;14.374;2022-09-12T02:14:45;14.10;99.90
2497;DHT22;1259;48.306;14.374;2022-09-12T02:17:18;14.20;99.90
2497;DHT22;1259;48.306;14.374;2022-09-12T02:19:50;14.20;99.90
2497;DHT22;1259;48.306;14.374;2022-09-12T02:22:20;14.20;99.90
2497;DHT22;1259;48.306;14.374;2022-09-12T02:24:51;14.10;99.90
2497;DHT22;1259;48.306;14.374;2022-09-12T02:27:21;14.10;99.90
2497;DHT22;1259;48.306;14.374;2022-09-12T02:29:49;14.10;99.90
2497;DHT22;1259;48.306;14.374;2022-09-12T02:32:23;14.20;99.90
2497;DHT22;1259;48.306;14.374;2022-09-12T02:34:57;14.20;99.90
2497;DHT22;1259;48.306;14.374;2022-09-12T02:37:35;14.20;99.90
2497;DHT22;1259;48.306;14.374;2022-09-12T02:40:04;14.20;99.90
2497;DHT22;1259;48.306;14.374;2022-09-12T02:42:33;14.20;99.90
2497;DHT22;1259;48.306;14.374;2022-09-12T02:45:01;14.10;99.90
2497;DHT22;1259;48.306;14.374;2022-09-12T02:47:35;14.10;99.90
2497;DHT22;1259;48.306;14.374;2022-09-12T02:50:03;14.10;99.90
2497;DHT22;1259;48.306;14.374;2022-09-12T02:52:33;14.10;99.90
2497;DHT22;1259;48.306;14.374;2022-09-12T02:55:01;14.20;99.90
2497;DHT22;1259;48.306;14.374;2022-09-12T02:57:29;14.20;99.90
2497;DHT22;1259;48.306;14.374;2022-09-12T02:59:59;14.20;99.90
2497;DHT22;1259;48.306;14.374;2022-09-12T03:02:35;14.20;99.90
2497;DHT22;1259;48.306;14.374;2022-09-12T03:05:16;14.20;99.90
2497;DHT22;1259;48.306;14.374;2022-09-12T03:08:03;14.10;99.90
2497;DHT22;1259;48.306;14.374;2022-09-12T03:10:41;14.10;99.90
2497;DHT22;1259;48.306;14.374;2022-09-12T03:13:19;14.20;99.90
2497;DHT22;1259;48.306;14.374;2022-09-12T03:15:54;14.10;99.90
2497;DHT22;1259;48.306;14.374;2022-09-12T03:18:41;14.10;99.90
2497;DHT22;1259;48.306;14.374;2022-09-12T03:21:12;14.00;99.90
2497;DHT22;1259;48.306;14.374;2022-09-12T03:23:46;14.00;99.90
2497;DHT22;1259;48.306;14.374;2022-09-12T03:26:17;14.00;99.90
2497;DHT22;1259;48.306;14.374;2022-09-12T03:28:46;14.00;99.90
2497;DHT22;1259;48.306;14.374;2022-09-12T03:31:16;14.00;99.90
2497;DHT22;1259;48.306;14.374;2022-09-12T03:33:45;14.10;99.90
2497;DHT22;1259;48.306;14.374;2022-09-12T03:36:16;14.10;99.90
2497;DHT22;1259;48.306;14.374;2022-09-12T03:38:45;13.90;99.90
2497;DHT22;1259;48.306;14.374;2022-09-12T03:41:12;14.00;99.90
2497;DHT22;1259;48.306;14.374;2022-09-12T03:43:39;13.90;99.90
2497;DHT22;1259;48.306;14.374;2022-09-12T03:46:06;14.00;99.90
2497;DHT22;1259;48.306;14.374;2022-09-12T03:48:33;14.00;99.90
2497;DHT22;1259;48.306;14.374;2022-09-12T03:51:02;13.90;99.90
2497;DHT22;1259;48.306;14.374;2022-09-12T03:53:30;13.90;99.90
2497;DHT22;1259;48.306;14.374;2022-09-12T03:55:58;13.80;99.90
2497;DHT22;1259;48.306;14.374;2022-09-12T03:58:29;13.90;99.90
2497;DHT22;1259;48.306;14.374;2022-09-12T04:00:56;13.90;99.90
2497;DHT22;1259;48.306;14.374;2022-09-12T04:03:23;13.80;99.90
2497;DHT22;1259;48.306;14.374;2022-09-12T04:05:50;13.70;99.90
2497;DHT22;1259;48.306;14.374;2022-09-12T04:08:18;13.70;99.90
2497;DHT22;1259;48.306;14.374;2022-09-12T04:10:45;13.70;99.90
2497;DHT22;1259;48.306;14.374;2022-09-12T04:13:12;13.70;99.90
2497;DHT22;1259;48.306;14.374;2022-09-12T04:15:39;13.70;99.90
2497;DHT22;1259;48.306;14.374;2022-09-12T04:18:06;13.60;99.90
2497;DHT22;1259;48.306;14.374;2022-09-12T04:20:33;13.50;99.90
2497;DHT22;1259;48.306;14.374;2022-09-12T04:23:01;13.50;99.90
2497;DHT22;1259;48.306;14.374;2022-09-12T04:25:29;13.50;99.90
2497;DHT22;1259;48.306;14.374;2022-09-12T04:27:57;13.60;99.90
2497;DHT22;1259;48.306;14.374;2022-09-12T04:30:23;13.60;99.90
2497;DHT22;1259;48.306;14.374;2022-09-12T04:32:50;13.50;99.90
2497;DHT22;1259;48.306;14.374;2022-09-12T04:35:17;13.50;99.90
2497;DHT22;1259;48.306;14.374;2022-09-12T04:37:44;13.50;99.90
2497;DHT22;1259;48.306;14.374;2022-09-12T04:40:11;13.50;99.90
2497;DHT22;1259;48.306;14.374;2022-09-12T04:42:39;13.40;99.90
2497;DHT22;1259;48.306;14.374;2022-09-12T04:45:07;13.40;99.90
2497;DHT22;1259;48.306;14.374;2022-09-12T04:47:34;13.40;99.90
2497;DHT22;1259;48.306;14.374;2022-09-12T04:50:01;13.30;99.90
2497;DHT22;1259;48.306;14.374;2022-09-12T04:52:28;13.40;99.90
2497;DHT22;1259;48.306;14.374;2022-09-12T04:54:55;13.40;99.90
2497;DHT22;1259;48.306;14.374;2022-09-12T04:57:22;13.40;99.90
2497;DHT22;1259;48.306;14.374;2022-09-12T04:59:51;13.40;99.90
2497;DHT22;1259;48.306;14.374;2022-09-12T05:02:18;13.50;99.90
2497;DHT22;1259;48.306;14.374;2022-09-12T05:04:45;13.50;99.90
2497;DHT22;1259;48.306;14.374;2022-09-12T05:07:12;13.40;99.90
2497;DHT22;1259;48.306;14.374;2022-09-12T05:09:39;13.50;99.90
2497;DHT22;1259;48.306;14.374;2022-09-12T05:12:06;13.60;99.90
2497;DHT22;1259;48.306;14.374;2022-09-12T05:14:34;13.70;99.90
2497;DHT22;1259;48.306;14.374;2022-09-12T05:17:03;13.70;99.90
2497;DHT22;1259;48.306;14.374;2022-09-12T05:19:30;13.70;99.90
2497;DHT22;1259;48.306;14.374;2022-09-12T05:21:58;13.70;99.90
2497;DHT22;1259;48.306;14.374;2022-09-12T05:24:25;13.80;99.90
2497;DHT22;1259;48.306;14.374;2022-09-12T05:26:55;13.80;99.90
2497;DHT22;1259;48.306;14.374;2022-09-12T05:29:22;13.90;99.90
2497;DHT22;1259;48.306;14.374;2022-09-12T05:31:50;14.00;99.90
2497;DHT22;1259;48.306;14.374;2022-09-12T05:34:19;14.10;99.90
2497;DHT22;1259;48.306;14.374;2022-09-12T05:36:46;14.10;99.90
2497;DHT22;1259;48.306;14.374;2022-09-12T05:39:14;14.00;99.90
2497;DHT22;1259;48.306;14.374;2022-09-12T05:41:40;14.10;99.90
2497;DHT22;1259;48.306;14.374;2022-09-12T05:44:11;14.10;99.90
2497;DHT22;1259;48.306;14.374;2022-09-12T05:46:41;14.20;99.90
2497;DHT22;1259;48.306;14.374;2022-09-12T05:49:09;14.20;99.90
2497;DHT22;1259;48.306;14.374;2022-09-12T05:51:39;14.40;99.90
2497;DHT22;1259;48.306;14.374;2022-09-12T05:54:08;14.50;99.90
2497;DHT22;1259;48.306;14.374;2022-09-12T05:56:37;14.70;99.90
2497;DHT22;1259;48.306;14.374;2022-09-12T05:59:06;14.80;99.90
2497;DHT22;1259;48.306;14.374;2022-09-12T06:01:34;14.90;99.90
2497;DHT22;1259;48.306;14.374;2022-09-12T06:04:03;14.90;99.90
2497;DHT22;1259;48.306;14.374;2022-09-12T06:06:33;15.00;99.90
2497;DHT22;1259;48.306;14.374;2022-09-12T06:09:03;15.00;99.90
2497;DHT22;1259;48.306;14.374;2022-09-12T06:11:32;15.20;99.90
2497;DHT22;1259;48.306;14.374;2022-09-12T06:14:00;15.30;99.90
2497;DHT22;1259;48.306;14.374;2022-09-12T06:16:28;15.10;99.90
2497;DHT22;1259;48.306;14.374;2022-09-12T06:18:56;15.10;99.90
2497;DHT22;1259;48.306;14.374;2022-09-12T06:21:24;15.00;99.90
2497;DHT22;1259;48.306;14.374;2022-09-12T06:23:53;14.80;99.90
2497;DHT22;1259;48.306;14.374;2022-09-12T06:26:22;14.70;99.90
2497;DHT22;1259;48.306;14.374;2022-09-12T06:28:50;14.50;99.90
2497;DHT22;1259;48.306;14.374;2022-09-12T06:31:19;14.50;99.90
2497;DHT22;1259;48.306;14.374;2022-09-12T06:33:48;14.60;99.90
2497;DHT22;1259;48.306;14.374;2022-09-12T06:36:17;14.80;99.90
2497;DHT22;1259;48.306;14.374;2022-09-12T06:38:44;14.70;99.90
2497;DHT22;1259;48.306;14.374;2022-09-12T06:41:12;14.80;99.90
2497;DHT22;1259;48.306;14.374;2022-09-12T06:43:41;14.90;99.90
2497;DHT22;1259;48.306;14.374;2022-09-12T06:46:09;14.90;99.90
2497;DHT22;1259;48.306;14.374;2022-09-12T06:48:37;15.00;99.90
2497;DHT22;1259;48.306;14.374;2022-09-12T06:51:06;15.20;99.90
2497;DHT22;1259;48.306;14.374;2022-09-12T06:53:33;15.20;99.90
2497;DHT22;1259;48.306;14.374;2022-09-12T06:56:03;15.50;99.90
2497;DHT22;1259;48.306;14.374;2022-09-12T06:58:32;15.60;99.90
2497;DHT22;1259;48.306;14.374;2022-09-12T07:01:05;16.00;99.90
2497;DHT22;1259;48.306;14.374;2022-09-12T07:03:33;16.10;99.90
2497;DHT22;1259;48.306;14.374;2022-09-12T07:06:05;15.90;99.90
2497;DHT22;1259;48.306;14.374;2022-09-12T07:08:33;15.80;99.90
2497;DHT22;1259;48.306;14.374;2022-09-12T07:11:08;15.70;99.90
2497;DHT22;1259;48.306;14.374;2022-09-12T07:13:35;15.70;99.90
2497;DHT22;1259;48.306;14.374;2022-09-12T07:16:04;15.70;99.90
2497;DHT22;1259;48.306;14.374;2022-09-12T07:18:31;15.80;99.90
2497;DHT22;1259;48.306;14.374;2022-09-12T07:20:59;15.90;99.90
2497;DHT22;1259;48.306;14.374;2022-09-12T07:23:26;16.10;99.90
2497;DHT22;1259;48.306;14.374;2022-09-12T07:25:57;16.40;99.90
2497;DHT22;1259;48.306;14.374;2022-09-12T07:28:26;16.30;99.90
2497;DHT22;1259;48.306;14.374;2022-09-12T07:30:53;16.60;99.90
2497;DHT22;1259;48.306;14.374;2022-09-12T07:33:23;16.80;99.90
2497;DHT22;1259;48.306;14.374;2022-09-12T07:35:50;16.90;99.90
2497;DHT22;1259;48.306;14.374;2022-09-12T07:38:19;17.10;99.90
2497;DHT22;1259;48.306;14.374;2022-09-12T07:40:46;17.10;99.90
2497;DHT22;1259;48.306;14.374;2022-09-12T07:43:13;17.20;99.90
2497;DHT22;1259;48.306;14.374;2022-09-12T07:45:40;17.30;99.90
2497;DHT22;1259;48.306;14.374;2022-09-12T07:48:08;17.40;99.90
2497;DHT22;1259;48.306;14.374;2022-09-12T07:50:36;17.20;99.90
2497;DHT22;1259;48.306;14.374;2022-09-12T07:53:04;17.20;99.90
2497;DHT22;1259;48.306;14.374;2022-09-12T07:55:31;17.20;99.90
2497;DHT22;1259;48.306;14.374;2022-09-12T07:57:58;17.60;99.90
2497;DHT22;1259;48.306;14.374;2022-09-12T08:00:25;17.80;99.90
2497;DHT22;1259;48.306;14.374;2022-09-12T08:03:00;17.90;99.90
2497;DHT22;1259;48.306;14.374;2022-09-12T08:05:29;18.30;99.90
2497;DHT22;1259;48.306;14.374;2022-09-12T08:07:57;18.50;99.90
2497;DHT22;1259;48.306;14.374;2022-09-12T08:10:24;18.40;99.90
2497;DHT22;1259;48.306;14.374;2022-09-12T08:12:51;18.50;99.90
2497;DHT22;1259;48.306;14.374;2022-09-12T08:15:18;18.30;99.90
2497;DHT22;1259;48.306;14.374;2022-09-12T08:17:45;17.80;99.90
2497;DHT22;1259;48.306;14.374;2022-09-12T08:20:12;17.70;99.90
2497;DHT22;1259;48.306;14.374;2022-09-12T08:22:39;17.80;99.90
2497;DHT22;1259;48.306;14.374;2022-09-12T08:25:08;17.60;99.90
2497;DHT22;1259;48.306;14.374;2022-09-12T08:27:35;17.70;99.90
2497;DHT22;1259;48.306;14.374;2022-09-12T08:30:03;18.10;99.90
2497;DHT22;1259;48.306;14.374;2022-09-12T08:32:30;18.10;99.90
2497;DHT22;1259;48.306;14.374;2022-09-12T08:34:57;18.20;99.90
2497;DHT22;1259;48.306;14.374;2022-09-12T08:37:24;18.20;99.90
2497;DHT22;1259;48.306;14.374;2022-09-12T08:39:51;18.30;99.90
2497;DHT22;1259;48.306;14.374;2022-09-12T08:42:25;18.30;99.90
2497;DHT22;1259;48.306;14.374;2022-09-12T08:45:04;18.20;99.90
2497;DHT22;1259;48.306;14.374;2022-09-12T08:47:36;18.10;99.90
2497;DHT22;1259;48.306;14.374;2022-09-12T08:50:17;18.10;99.90
2497;DHT22;1259;48.306;14.374;2022-09-12T08:52:56;18.00;99.90
2497;DHT22;1259;48.306;14.374;2022-09-12T08:55:29;18.20;99.90
2497;DHT22;1259;48.306;14.374;2022-09-12T08:57:58;18.40;99.90
2497;DHT22;1259;48.306;14.374;2022-09-12T09:00:34;18.30;99.90
2497;DHT22;1259;48.306;14.374;2022-09-12T09:06:20;18.50;99.90
2497;DHT22;1259;48.306;14.374;2022-09-12T09:08:58;18.10;99.90
2497;DHT22;1259;48.306;14.374;2022-09-12T09:11:39;17.90;99.90
2497;DHT22;1259;48.306;14.374;2022-09-12T09:14:22;17.80;99.90
2497;DHT22;1259;48.306;14.374;2022-09-12T09:17:15;17.70;99.90
2497;DHT22;1259;48.306;14.374;2022-09-12T09:19:48;17.70;99.90
2497;DHT22;1259;48.306;14.374;2022-09-12T09:22:22;17.80;99.90
2497;DHT22;1259;48.306;14.374;2022-09-12T09:25:00;17.80;99.90
2497;DHT22;1259;48.306;14.374;2022-09-12T09:27:30;17.80;99.90
2497;DHT22;1259;48.306;14.374;2022-09-12T09:30:01;18.10;99.90
2497;DHT22;1259;48.306;14.374;2022-09-12T09:32:32;18.20;99.90
2497;DHT22;1259;48.306;14.374;2022-09-12T09:35:01;18.50;99.90
2497;DHT22;1259;48.306;14.374;2022-09-12T09:37:35;18.90;99.90
2497;DHT22;1259;48.306;14.374;2022-09-12T09:40:16;18.50;99.90
2497;DHT22;1259;48.306;14.374;2022-09-12T09:42:52;18.60;99.90
2497;DHT22;1259;48.306;14.374;2022-09-12T09:45:24;18.70;99.90
2497;DHT22;1259;48.306;14.374;2022-09-12T09:47:57;18.60;99.90
2497;DHT22;1259;48.306;14.374;2022-09-12T09:50:26;18.80;99.90
2497;DHT22;1259;48.306;14.374;2022-09-12T09:52:55;19.00;99.90
2497;DHT22;1259;48.306;14.374;2022-09-12T09:55:27;19.20;99.90
2497;DHT22;1259;48.306;14.374;2022-09-12T09:57:56;19.40;99.90
2497;DHT22;1259;48.306;14.374;2022-09-12T10:00:29;19.30;99.90
2497;DHT22;1259;48.306;14.374;2022-09-12T10:03:24;19.20;99.90
2497;DHT22;1259;48.306;14.374;2022-09-12T10:05:53;19.30;99.90
2497;DHT22;1259;48.306;14.374;2022-09-12T10:08:23;19.30;99.90
2497;DHT22;1259;48.306;14.374;2022-09-12T10:11:00;19.60;99.90
2497;DHT22;1259;48.306;14.374;2022-09-12T10:13:40;19.90;99.90
2497;DHT22;1259;48.306;14.374;2022-09-12T10:16:19;19.60;99.90
2497;DHT22;1259;48.306;14.374;2022-09-12T10:18:49;19.70;99.90
2497;DHT22;1259;48.306;14.374;2022-09-12T10:21:24;19.30;99.90
2497;DHT22;1259;48.306;14.374;2022-09-12T10:24:16;19.50;99.90
2497;DHT22;1259;48.306;14.374;2022-09-12T10:26:49;19.40;99.90
2497;DHT22;1259;48.306;14.374;2022-09-12T10:29:21;19.80;99.90
2497;DHT22;1259;48.306;14.374;2022-09-12T10:31:53;19.60;99.90
2497;DHT22;1259;48.306;14.374;2022-09-12T10:34:26;19.80;99.90
2497;DHT22;1259;48.306;14.374;2022-09-12T10:37:00;19.80;99.90
2497;DHT22;1259;48.306;14.374;2022-09-12T10:39:29;19.70;99.90
2497;DHT22;1259;48.306;14.374;2022-09-12T10:41:57;19.80;99.90
2497;DHT22;1259;48.306;14.374;2022-09-12T10:44:25;20.00;99.90
2497;DHT22;1259;48.306;14.374;2022-09-12T10:46:54;20.20;99.90
2497;DHT22;1259;48.306;14.374;2022-09-12T10:49:25;20.30;99.90
2497;DHT22;1259;48.306;14.374;2022-09-12T10:51:53;20.10;99.90
2497;DHT22;1259;48.306;14.374;2022-09-12T10:54:23;20.10;99.90
2497;DHT22;1259;48.306;14.374;2022-09-12T11:00:03;20.20;99.90
2497;DHT22;1259;48.306;14.374;2022-09-12T11:02:46;20.10;99.90
2497;DHT22;1259;48.306;14.374;2022-09-12T11:05:21;20.20;99.90
2497;DHT22;1259;48.306;14.374;2022-09-12T11:07:53;20.30;99.90
2497;DHT22;1259;48.306;14.374;2022-09-12T11:10:29;20.50;99.90
2497;DHT22;1259;48.306;14.374;2022-09-12T11:13:12;20.70;99.90
2497;DHT22;1259;48.306;14.374;2022-09-12T11:15:55;20.50;99.90
2497;DHT22;1259;48.306;14.374;2022-09-12T11:18:48;20.80;99.90
2497;DHT22;1259;48.306;14.374;2022-09-12T11:21:30;20.90;99.90
2497;DHT22;1259;48.306;14.374;2022-09-12T11:24:13;21.10;99.90
2497;DHT22;1259;48.306;14.374;2022-09-12T11:26:52;21.10;99.90
2497;DHT22;1259;48.306;14.374;2022-09-12T11:29:34;21.10;99.90
2497;DHT22;1259;48.306;14.374;2022-09-12T11:32:22;21.10;99.90
2497;DHT22;1259;48.306;14.374;2022-09-12T11:35:05;21.30;99.90
2497;DHT22;1259;48.306;14.374;2022-09-12T11:37:49;21.20;99.90
2497;DHT22;1259;48.306;14.374;2022-09-12T11:40:28;21.20;99.90
2497;DHT22;1259;48.306;14.374;2022-09-12T11:42:59;21.00;99.90
2497;DHT22;1259;48.306;14.374;2022-09-12T11:45:31;20.80;99.90
2497;DHT22;1259;48.306;14.374;2022-09-12T11:48:05;20.70;99.90
2497;DHT22;1259;48.306;14.374;2022-09-12T11:50:34;20.70;99.90
2497;DHT22;1259;48.306;14.374;2022-09-12T11:53:05;20.60;99.90
2497;DHT22;1259;48.306;14.374;2022-09-12T11:55:46;20.50;99.90
2497;DHT22;1259;48.306;14.374;2022-09-12T11:58:15;20.70;99.90
2497;DHT22;1259;48.306;14.374;2022-09-12T12:00:45;20.80;99.90
2497;DHT22;1259;48.306;14.374;2022-09-12T12:03:17;20.80;99.90
2497;DHT22;1259;48.306;14.374;2022-09-12T12:05:50;20.70;99.90
2497;DHT22;1259;48.306;14.374;2022-09-12T12:08:20;20.70;99.90
2497;DHT22;1259;48.306;14.374;2022-09-12T12:10:49;20.80;99.90
2497;DHT22;1259;48.306;14.374;2022-09-12T12:13:24;20.90;99.90
2497;DHT22;1259;48.306;14.374;2022-09-12T12:15:55;21.00;99.90
2497;DHT22;1259;48.306;14.374;2022-09-12T12:18:24;21.00;99.90
2497;DHT22;1259;48.306;14.374;2022-09-12T12:20:54;20.90;99.90
2497;DHT22;1259;48.306;14.374;2022-09-12T12:23:23;20.60;99.90
2497;DHT22;1259;48.306;14.374;2022-09-12T12:25:53;20.70;99.90
2497;DHT22;1259;48.306;14.374;2022-09-12T12:28:56;20.80;99.90
2497;DHT22;1259;48.306;14.374;2022-09-12T12:31:23;21.00;99.90
2497;DHT22;1259;48.306;14.374;2022-09-12T12:34:18;21.00;99.90
2497;DHT22;1259;48.306;14.374;2022-09-12T12:36:47;21.00;99.90
2497;DHT22;1259;48.306;14.374;2022-09-12T12:39:54;20.60;99.90
2497;DHT22;1259;48.306;14.374;2022-09-12T12:45:59;20.60;99.90
2497;DHT22;1259;48.306;14.374;2022-09-12T12:48:32;20.70;99.90
2497;DHT22;1259;48.306;14.374;2022-09-12T12:54:33;20.70;99.90
2497;DHT22;1259;48.306;14.374;2022-09-12T12:57:14;20.50;99.90
2497;DHT22;1259;48.306;14.374;2022-09-12T12:59:47;20.40;99.90
2497;DHT22;1259;48.306;14.374;2022-09-12T13:02:19;20.40;99.90
2497;DHT22;1259;48.306;14.374;2022-09-12T13:04:48;20.50;99.90
2497;DHT22;1259;48.306;14.374;2022-09-12T13:07:25;20.60;99.90
2497;DHT22;1259;48.306;14.374;2022-09-12T13:09:55;20.80;99.90
2497;DHT22;1259;48.306;14.374;2022-09-12T13:12:24;20.70;99.90
2497;DHT22;1259;48.306;14.374;2022-09-12T13:14:53;20.90;99.90
2497;DHT22;1259;48.306;14.374;2022-09-12T13:17:24;21.00;99.90
2497;DHT22;1259;48.306;14.374;2022-09-12T13:20:02;21.00;99.90
2497;DHT22;1259;48.306;14.374;2022-09-12T13:22:38;21.00;99.90
2497;DHT22;1259;48.306;14.374;2022-09-12T13:25:23;21.00;99.90
2497;DHT22;1259;48.306;14.374;2022-09-12T13:28:15;21.00;99.90
2497;DHT22;1259;48.306;14.374;2022-09-12T13:30:45;21.00;99.90
2497;DHT22;1259;48.306;14.374;2022-09-12T13:33:18;21.00;99.90
2497;DHT22;1259;48.306;14.374;2022-09-12T13:38:50;21.20;99.90
2497;DHT22;1259;48.306;14.374;2022-09-12T13:41:38;21.20;99.90
2497;DHT22;1259;48.306;14.374;2022-09-12T13:44:09;21.30;99.90
2497;DHT22;1259;48.306;14.374;2022-09-12T13:46:37;21.20;99.90
2497;DHT22;1259;48.306;14.374;2022-09-12T13:49:11;21.00;99.90
2497;DHT22;1259;48.306;14.374;2022-09-12T13:51:39;21.10;99.90
2497;DHT22;1259;48.306;14.374;2022-09-12T13:54:06;21.20;99.90
2497;DHT22;1259;48.306;14.374;2022-09-12T13:56:46;21.30;99.90
2497;DHT22;1259;48.306;14.374;2022-09-12T13:59:13;21.20;99.90
2497;DHT22;1259;48.306;14.374;2022-09-12T14:01:41;21.10;99.90
2497;DHT22;1259;48.306;14.374;2022-09-12T14:04:16;21.10;99.90
2497;DHT22;1259;48.306;14.374;2022-09-12T14:07:09;21.20;99.90
2497;DHT22;1259;48.306;14.374;2022-09-12T14:09:40;21.20;99.90
2497;DHT22;1259;48.306;14.374;2022-09-12T14:12:32;21.20;99.90
2497;DHT22;1259;48.306;14.374;2022-09-12T14:15:00;21.30;99.90
2497;DHT22;1259;48.306;14.374;2022-09-12T14:17:32;21.10;99.90
2497;DHT22;1259;48.306;14.374;2022-09-12T14:20:01;21.30;99.90
2497;DHT22;1259;48.306;14.374;2022-09-12T14:22:29;21.30;99.90
2497;DHT22;1259;48.306;14.374;2022-09-12T14:24:56;21.20;99.90
2497;DHT22;1259;48.306;14.374;2022-09-12T14:27:28;21.00;99.90
2497;DHT22;1259;48.306;14.374;2022-09-12T14:30:00;21.00;99.90
2497;DHT22;1259;48.306;14.374;2022-09-12T14:32:28;20.90;99.90
2497;DHT22;1259;48.306;14.374;2022-09-12T14:35:06;20.80;99.90
2497;DHT22;1259;48.306;14.374;2022-09-12T14:37:43;20.60;99.90
2497;DHT22;1259;48.306;14.374;2022-09-12T14:40:15;20.60;99.90
2497;DHT22;1259;48.306;14.374;2022-09-12T14:42:45;20.60;99.90
2497;DHT22;1259;48.306;14.374;2022-09-12T14:45:21;20.70;99.90
2497;DHT22;1259;48.306;14.374;2022-09-12T14:47:50;20.70;99.90
2497;DHT22;1259;48.306;14.374;2022-09-12T14:50:20;20.70;99.90
2497;DHT22;1259;48.306;14.374;2022-09-12T14:53:02;20.70;99.90
2497;DHT22;1259;48.306;14.374;2022-09-12T14:55:31;20.60;99.90
2497;DHT22;1259;48.306;14.374;2022-09-12T14:58:15;20.60;99.90
2497;DHT22;1259;48.306;14.374;2022-09-12T15:00:56;20.50;99.90
2497;DHT22;1259;48.306;14.374;2022-09-12T15:03:26;20.70;99.90
2497;DHT22;1259;48.306;14.374;2022-09-12T15:05:53;20.40;99.90
2497;DHT22;1259;48.306;14.374;2022-09-12T15:08:20;20.20;99.90
2497;DHT22;1259;48.306;14.374;2022-09-12T15:10:48;20.10;99.90
2497;DHT22;1259;48.306;14.374;2022-09-12T15:13:18;20.10;99.90
2497;DHT22;1259;48.306;14.374;2022-09-12T15:15:47;20.00;99.90
2497;DHT22;1259;48.306;14.374;2022-09-12T15:18:14;19.90;99.90
2497;DHT22;1259;48.306;14.374;2022-09-12T15:20:43;19.70;99.90
2497;DHT22;1259;48.306;14.374;2022-09-12T15:26:00;19.80;99.90
2497;DHT22;1259;48.306;14.374;2022-09-12T15:28:30;19.90;99.90
2497;DHT22;1259;48.306;14.374;2022-09-12T15:31:01;19.80;99.90
2497;DHT22;1259;48.306;14.374;2022-09-12T15:33:30;19.80;99.90
2497;DHT22;1259;48.306;14.374;2022-09-12T15:35:57;19.90;99.90
2497;DHT22;1259;48.306;14.374;2022-09-12T15:38:24;19.90;99.90
2497;DHT22;1259;48.306;14.374;2022-09-12T15:40:51;19.80;99.90
2497;DHT22;1259;48.306;14.374;2022-09-12T15:43:19;19.70;99.90
2497;DHT22;1259;48.306;14.374;2022-09-12T15:45:49;19.60;99.90
2497;DHT22;1259;48.306;14.374;2022-09-12T15:48:17;19.40;99.90
2497;DHT22;1259;48.306;14.374;2022-09-12T15:50:44;19.40;99.90
2497;DHT22;1259;48.306;14.374;2022-09-12T15:53:13;19.60;99.90
2497;DHT22;1259;48.306;14.374;2022-09-12T15:55:41;19.50;99.90
2497;DHT22;1259;48.306;14.374;2022-09-12T15:58:08;19.30;99.90
2497;DHT22;1259;48.306;14.374;2022-09-12T16:00:35;19.10;99.90
2497;DHT22;1259;48.306;14.374;2022-09-12T16:03:04;19.00;99.90
2497;DHT22;1259;48.306;14.374;2022-09-12T16:05:31;19.00;99.90
2497;DHT22;1259;48.306;14.374;2022-09-12T16:07:58;19.10;99.90
2497;DHT22;1259;48.306;14.374;2022-09-12T16:10:27;19.10;99.90
2497;DHT22;1259;48.306;14.374;2022-09-12T16:12:56;19.10;99.90
2497;DHT22;1259;48.306;14.374;2022-09-12T16:15:24;19.20;99.90
2497;DHT22;1259;48.306;14.374;2022-09-12T16:17:51;19.10;99.90
2497;DHT22;1259;48.306;14.374;2022-09-12T16:20:20;19.10;99.90
2497;DHT22;1259;48.306;14.374;2022-09-12T16:22:47;19.00;99.90
2497;DHT22;1259;48.306;14.374;2022-09-12T16:25:14;19.00;99.90
2497;DHT22;1259;48.306;14.374;2022-09-12T16:27:42;18.90;99.90
2497;DHT22;1259;48.306;14.374;2022-09-12T16:30:09;19.00;99.90
2497;DHT22;1259;48.306;14.374;2022-09-12T16:32:36;19.10;99.90
2497;DHT22;1259;48.306;14.374;2022-09-12T16:35:04;19.00;99.90